Time,TemperatureF,DewpointF,PressureIn,WindDirection,WindDirectionDegrees,WindSpeedMPH,WindSpeedGustMPH,Humidity,HourlyPrecipIn,Conditions,Clouds,dailyrainin,SolarRadiationWatts/m^2,SoftwareType,DateUTC
2013-06-16 00:01:00,52.0,46.0,30.21,North,0,0.0,0.0,78,-99.99,,,-99.99,8.100000,,2013-06-16 08:01:00,
2013-06-16 00:22:00,51.0,45.0,30.22,North,0,0.0,0.0,81,-99.99,,,-99.99,3.700000,,2013-06-16 08:22:00,
2013-06-16 00:33:00,49.0,45.0,30.22,North,0,0.0,0.0,86,-99.99,,,-99.99,2.900000,,2013-06-16 08:33:00,
2013-06-16 00:43:00,49.0,44.0,30.23,SSW,213,0.0,4.0,83,-99.99,,,-99.99,3.000000,,2013-06-16 08:43:00,
2013-06-16 00:54:00,53.0,44.0,30.23,SSE,159,0.0,0.0,71,-99.99,,,-99.99,2.800000,,2013-06-16 08:54:00,
2013-06-16 01:01:00,50.0,44.0,30.23,North,0,0.0,0.0,79,-99.99,,,-99.99,1.600000,,2013-06-16 09:01:00,
2013-06-16 01:11:00,51.0,44.0,30.23,North,0,0.0,0.0,75,-99.99,,,-99.99,1.300000,,2013-06-16 09:11:00,
2013-06-16 01:22:00,48.0,44.0,30.23,North,0,0.0,0.0,84,-99.99,,,-99.99,1.000000,,2013-06-16 09:22:00,
2013-06-16 01:33:00,48.0,43.0,30.23,ESE,123,0.0,0.0,80,-99.99,,,-99.99,0.800000,,2013-06-16 09:33:00,
2013-06-16 01:42:00,48.0,42.0,30.23,North,0,0.0,0.0,79,-99.99,,,-99.99,0.700000,,2013-06-16 09:42:00,
2013-06-16 01:52:00,46.0,42.0,30.24,North,0,0.0,0.0,84,-99.99,,,-99.99,0.700000,,2013-06-16 09:52:00,
2013-06-16 02:01:00,47.0,41.0,30.24,North,0,0.0,0.0,79,-99.99,,,-99.99,0.700000,,2013-06-16 10:01:00,
2013-06-16 02:11:00,46.0,41.0,30.24,North,0,0.0,0.0,83,-99.99,,,-99.99,0.700000,,2013-06-16 10:11:00,
2013-06-16 02:22:00,45.0,41.0,30.24,North,0,0.0,0.0,87,-99.99,,,-99.99,0.700000,,2013-06-16 10:22:00,
2013-06-16 02:33:00,44.0,41.0,30.24,North,0,0.0,0.0,87,-99.99,,,-99.99,0.700000,,2013-06-16 10:33:00,
2013-06-16 02:42:00,44.0,40.0,30.24,North,0,0.0,0.0,85,-99.99,,,-99.99,0.800000,,2013-06-16 10:42:00,
2013-06-16 02:53:00,45.0,40.0,30.24,North,0,0.0,0.0,81,-99.99,,,-99.99,1.000000,,2013-06-16 10:53:00,
2013-06-16 03:02:00,44.0,40.0,30.24,North,0,0.0,0.0,86,-99.99,,,-99.99,1.200000,,2013-06-16 11:02:00,
2013-06-16 03:11:00,43.0,40.0,30.24,North,0,0.0,0.0,88,-99.99,,,-99.99,1.500000,,2013-06-16 11:11:00,
2013-06-16 03:22:00,43.0,40.0,30.24,North,0,0.0,0.0,87,-99.99,,,-99.99,1.600000,,2013-06-16 11:22:00,
2013-06-16 03:33:00,43.0,40.0,30.25,North,0,0.0,0.0,88,-99.99,,,-99.99,1.800000,,2013-06-16 11:33:00,
2013-06-16 03:43:00,42.0,39.0,30.25,North,0,0.0,0.0,90,-99.99,,,-99.99,2.700000,,2013-06-16 11:43:00,
2013-06-16 03:52:00,42.0,39.0,30.25,North,0,0.0,0.0,90,-99.99,,,-99.99,3.200000,,2013-06-16 11:52:00,
2013-06-16 04:01:00,45.0,40.0,30.25,North,0,0.0,0.0,84,-99.99,,,-99.99,5.300000,,2013-06-16 12:01:00,
2013-06-16 04:22:00,43.0,40.0,30.25,North,0,0.0,0.0,90,-99.99,,,-99.99,8.300000,,2013-06-16 12:22:00,
2013-06-16 04:42:00,46.0,40.0,30.25,North,0,0.0,0.0,79,-99.99,,,-99.99,11.300000,,2013-06-16 12:42:00,
2013-06-16 05:01:00,44.0,41.0,30.25,North,0,0.0,0.0,87,-99.99,,,-99.99,15.300000,,2013-06-16 13:01:00,
2013-06-16 05:11:00,45.0,41.0,30.25,North,0,0.0,0.0,85,-99.99,,,-99.99,18.100000,,2013-06-16 13:11:00,
2013-06-16 05:34:00,46.0,42.0,30.25,North,0,0.0,0.0,85,-99.99,,,-99.99,23.500000,,2013-06-16 13:34:00,
2013-06-16 05:42:00,45.0,42.0,30.25,North,0,0.0,0.0,88,-99.99,,,-99.99,25.200001,,2013-06-16 13:42:00,
2013-06-16 05:53:00,48.0,42.0,30.26,North,0,0.0,0.0,80,-99.99,,,-99.99,28.500000,,2013-06-16 13:53:00,
2013-06-16 06:01:00,49.0,42.0,30.26,North,0,0.0,0.0,77,-99.99,,,-99.99,33.900002,,2013-06-16 14:01:00,
2013-06-16 06:12:00,49.0,44.0,30.26,North,0,0.0,0.0,82,-99.99,,,-99.99,41.000000,,2013-06-16 14:12:00,
2013-06-16 06:22:00,50.0,44.0,30.26,North,0,0.0,0.0,78,-99.99,,,-99.99,49.000000,,2013-06-16 14:22:00,
2013-06-16 06:34:00,52.0,45.0,30.26,North,0,0.0,0.0,78,-99.99,,,-99.99,59.700001,,2013-06-16 14:34:00,
2013-06-16 06:43:00,54.0,46.0,30.26,North,0,0.0,0.0,76,-99.99,,,-99.99,70.300003,,2013-06-16 14:43:00,
2013-06-16 06:52:00,53.0,47.0,30.26,North,0,0.0,0.0,78,-99.99,,,-99.99,77.199997,,2013-06-16 14:52:00,
2013-06-16 07:02:00,54.0,47.0,30.26,North,0,0.0,0.0,77,-99.99,,,-99.99,103.500000,,2013-06-16 15:02:00,
2013-06-16 07:12:00,55.0,46.0,30.26,North,0,0.0,0.0,71,-99.99,,,-99.99,112.699997,,2013-06-16 15:12:00,
2013-06-16 07:22:00,56.0,46.0,30.26,North,0,0.0,0.0,70,-99.99,,,-99.99,110.800003,,2013-06-16 15:22:00,
2013-06-16 07:33:00,56.0,48.0,30.26,North,0,0.0,0.0,72,-99.99,,,-99.99,107.199997,,2013-06-16 15:33:00,
2013-06-16 07:43:00,58.0,47.0,30.26,North,0,0.0,0.0,66,-99.99,,,-99.99,117.099998,,2013-06-16 15:43:00,
2013-06-16 07:52:00,58.0,48.0,30.26,North,0,0.0,0.0,68,-99.99,,,-99.99,191.000000,,2013-06-16 15:52:00,
2013-06-16 08:01:00,59.0,47.0,30.26,North,0,0.0,0.0,64,-99.99,,,-99.99,187.899994,,2013-06-16 16:01:00,
2013-06-16 08:11:00,60.0,48.0,30.26,North,0,0.0,0.0,64,-99.99,,,-99.99,223.800003,,2013-06-16 16:11:00,
2013-06-16 08:22:00,61.0,48.0,30.26,North,0,0.0,0.0,61,-99.99,,,-99.99,221.800003,,2013-06-16 16:22:00,
2013-06-16 08:33:00,62.0,49.0,30.27,North,0,0.0,0.0,62,-99.99,,,-99.99,191.500000,,2013-06-16 16:33:00,
2013-06-16 08:43:00,64.0,48.0,30.27,North,0,0.0,0.0,55,-99.99,,,-99.99,281.399994,,2013-06-16 16:43:00,
2013-06-16 08:53:00,64.0,50.0,30.27,North,0,0.0,0.0,60,-99.99,,,-99.99,316.100006,,2013-06-16 16:53:00,
2013-06-16 09:01:00,67.0,47.0,30.26,North,0,0.0,0.0,48,-99.99,,,-99.99,278.700012,,2013-06-16 17:01:00,
2013-06-16 09:11:00,67.0,49.0,30.26,North,0,0.0,0.0,52,-99.99,,,-99.99,204.399994,,2013-06-16 17:11:00,
2013-06-16 09:22:00,66.0,50.0,30.26,North,0,0.0,0.0,56,-99.99,,,-99.99,208.100006,,2013-06-16 17:22:00,
2013-06-16 09:34:00,68.0,50.0,30.26,North,0,0.0,0.0,52,-99.99,,,-99.99,409.600006,,2013-06-16 17:34:00,
2013-06-16 09:43:00,70.0,49.0,30.27,NNW,339,0.0,1.0,47,-99.99,,,-99.99,301.399994,,2013-06-16 17:43:00,
2013-06-16 09:52:00,70.0,51.0,30.27,North,0,0.0,0.0,51,-99.99,,,-99.99,293.600006,,2013-06-16 17:52:00,
2013-06-16 10:01:00,71.0,50.0,30.26,North,0,0.0,0.0,47,-99.99,,,-99.99,358.100006,,2013-06-16 18:01:00,
2013-06-16 10:11:00,72.0,49.0,30.26,North,0,0.0,0.0,42,-99.99,,,-99.99,459.600006,,2013-06-16 18:11:00,
2013-06-16 10:22:00,73.0,46.0,30.26,WNW,302,0.0,0.0,39,-99.99,,,-99.99,369.000000,,2013-06-16 18:22:00,
2013-06-16 10:33:00,73.0,45.0,30.26,WNW,289,0.0,3.0,36,-99.99,,,-99.99,441.899994,,2013-06-16 18:33:00,
2013-06-16 10:43:00,74.0,46.0,30.27,WSW,238,0.0,4.0,36,-99.99,,,-99.99,504.100006,,2013-06-16 18:43:00,
2013-06-16 10:52:00,75.0,46.0,30.26,WNW,293,0.0,6.0,36,-99.99,,,-99.99,565.099976,,2013-06-16 18:52:00,
2013-06-16 11:01:00,75.0,47.0,30.26,NW,317,0.0,5.0,36,-99.99,,,-99.99,561.900024,,2013-06-16 19:01:00,
2013-06-16 11:11:00,76.0,47.0,30.26,WNW,291,1.0,7.0,35,-99.99,,,-99.99,578.500000,,2013-06-16 19:11:00,
2013-06-16 11:22:00,76.0,47.0,30.26,North,0,0.0,0.0,35,-99.99,,,-99.99,590.799988,,2013-06-16 19:22:00,
2013-06-16 11:33:00,76.0,47.0,30.26,North,0,0.0,0.0,35,-99.99,,,-99.99,590.799988,,2013-06-16 19:33:00,
2013-06-16 11:43:00,77.0,46.0,30.26,North,0,0.0,0.0,34,-99.99,,,-99.99,505.000000,,2013-06-16 19:43:00,
2013-06-16 11:53:00,77.0,47.0,30.26,NNE,23,1.0,6.0,34,-99.99,,,-99.99,701.500000,,2013-06-16 19:53:00,
2013-06-16 12:01:00,77.0,46.0,30.25,NNE,33,0.0,4.0,32,-99.99,,,-99.99,662.200012,,2013-06-16 20:01:00,
2013-06-16 12:11:00,78.0,45.0,30.25,North,4,0.0,4.0,31,-99.99,,,-99.99,734.599976,,2013-06-16 20:11:00,
2013-06-16 12:22:00,79.0,46.0,30.25,NW,312,0.0,0.0,31,-99.99,,,-99.99,677.099976,,2013-06-16 20:22:00,
2013-06-16 12:33:00,78.0,44.0,30.24,West,280,1.0,5.0,30,-99.99,,,-99.99,322.000000,,2013-06-16 20:33:00,
2013-06-16 12:42:00,78.0,45.0,30.24,WNW,292,1.0,6.0,30,-99.99,,,-99.99,468.899994,,2013-06-16 20:42:00,
2013-06-16 12:53:00,79.0,45.0,30.24,NNE,24,2.0,8.0,30,-99.99,,,-99.99,729.599976,,2013-06-16 20:53:00,
2013-06-16 13:01:00,80.0,45.0,30.24,NNE,22,2.0,8.0,29,-99.99,,,-99.99,731.599976,,2013-06-16 21:01:00,
2013-06-16 13:11:00,80.0,45.0,30.24,NNW,329,0.0,5.0,28,-99.99,,,-99.99,737.799988,,2013-06-16 21:11:00,
2013-06-16 13:21:00,80.0,45.0,30.24,NNE,19,1.0,5.0,28,-99.99,,,-99.99,739.000000,,2013-06-16 21:21:00,
2013-06-16 13:32:00,80.0,44.0,30.23,WNW,294,3.0,12.0,28,-99.99,,,-99.99,747.000000,,2013-06-16 21:32:00,
2013-06-16 13:42:00,81.0,44.0,30.23,NNW,345,1.0,7.0,27,-99.99,,,-99.99,746.700012,,2013-06-16 21:42:00,
2013-06-16 13:52:00,81.0,44.0,30.23,NW,319,0.0,4.0,27,-99.99,,,-99.99,747.599976,,2013-06-16 21:52:00,
2013-06-16 14:01:00,81.0,44.0,30.23,WNW,301,2.0,6.0,27,-99.99,,,-99.99,749.400024,,2013-06-16 22:01:00,
2013-06-16 14:11:00,81.0,44.0,30.23,North,355,0.0,5.0,26,-99.99,,,-99.99,753.000000,,2013-06-16 22:11:00,
2013-06-16 14:22:00,81.0,44.0,30.23,West,279,1.0,6.0,26,-99.99,,,-99.99,755.099976,,2013-06-16 22:22:00,
2013-06-16 14:32:00,81.0,42.0,30.23,WNW,299,2.0,8.0,24,-99.99,,,-99.99,754.900024,,2013-06-16 22:32:00,
2013-06-16 14:41:00,81.0,42.0,30.23,WNW,303,3.0,11.0,24,-99.99,,,-99.99,753.000000,,2013-06-16 22:41:00,
2013-06-16 14:52:00,82.0,44.0,30.22,NW,313,1.0,8.0,25,-99.99,,,-99.99,748.700012,,2013-06-16 22:52:00,
2013-06-16 15:01:00,82.0,43.0,30.22,NW,309,1.0,6.0,24,-99.99,,,-99.99,746.799988,,2013-06-16 23:01:00,
2013-06-16 15:11:00,82.0,42.0,30.22,WSW,249,0.0,4.0,24,-99.99,,,-99.99,737.299988,,2013-06-16 23:11:00,
2013-06-16 15:22:00,82.0,43.0,30.22,WNW,288,1.0,8.0,25,-99.99,,,-99.99,745.799988,,2013-06-16 23:22:00,
2013-06-16 15:32:00,82.0,44.0,30.22,West,273,3.0,11.0,26,-99.99,,,-99.99,740.099976,,2013-06-16 23:32:00,
2013-06-16 15:42:00,83.0,45.0,30.22,NNE,14,1.0,6.0,27,-99.99,,,-99.99,717.500000,,2013-06-16 23:42:00,
2013-06-16 15:51:00,82.0,45.0,30.21,NNW,341,2.0,9.0,26,-99.99,,,-99.99,709.599976,,2013-06-16 23:51:00,
2013-06-16 16:01:00,82.0,45.0,30.21,North,353,0.0,4.0,26,-99.99,,,-99.99,697.799988,,2013-06-17 00:01:00,
2013-06-16 16:11:00,82.0,44.0,30.21,North,351,2.0,8.0,26,-99.99,,,-99.99,685.400024,,2013-06-17 00:11:00,
2013-06-16 16:22:00,83.0,44.0,30.21,NNW,342,0.0,3.0,25,-99.99,,,-99.99,676.500000,,2013-06-17 00:22:00,
2013-06-16 16:32:00,83.0,45.0,30.21,NNW,331,1.0,7.0,26,-99.99,,,-99.99,668.000000,,2013-06-17 00:32:00,
2013-06-16 16:42:00,83.0,45.0,30.20,NNW,335,3.0,8.0,26,-99.99,,,-99.99,662.099976,,2013-06-17 00:42:00,
2013-06-16 16:52:00,83.0,45.0,30.20,WNW,291,1.0,9.0,26,-99.99,,,-99.99,661.000000,,2013-06-17 00:52:00,
2013-06-16 17:02:00,83.0,46.0,30.20,NW,306,0.0,5.0,27,-99.99,,,-99.99,670.200012,,2013-06-17 01:02:00,
2013-06-16 17:11:00,83.0,46.0,30.20,NNW,327,3.0,15.0,27,-99.99,,,-99.99,515.900024,,2013-06-17 01:11:00,
2013-06-16 17:22:00,82.0,45.0,30.20,WNW,287,2.0,8.0,27,-99.99,,,-99.99,353.700012,,2013-06-17 01:22:00,
2013-06-16 17:32:00,83.0,46.0,30.18,WNW,293,4.0,12.0,26,-99.99,,,-99.99,643.599976,,2013-06-17 01:32:00,
2013-06-16 17:43:00,83.0,46.0,30.18,NW,323,1.0,7.0,27,-99.99,,,-99.99,523.900024,,2013-06-17 01:43:00,
2013-06-16 17:53:00,83.0,48.0,30.18,NNW,328,2.0,9.0,29,-99.99,,,-99.99,557.599976,,2013-06-17 01:53:00,
2013-06-16 18:02:00,83.0,48.0,30.18,North,0,3.0,10.0,29,-99.99,,,-99.99,538.000000,,2013-06-17 02:02:00,
2013-06-16 18:11:00,83.0,49.0,30.18,North,356,2.0,8.0,30,-99.99,,,-99.99,511.200012,,2013-06-17 02:11:00,
2013-06-16 18:22:00,83.0,49.0,30.18,North,358,1.0,5.0,30,-99.99,,,-99.99,503.299988,,2013-06-17 02:22:00,
2013-06-16 18:34:00,83.0,47.0,30.18,NNW,346,3.0,9.0,28,-99.99,,,-99.99,475.600006,,2013-06-17 02:34:00,
2013-06-16 18:43:00,83.0,49.0,30.18,North,2,2.0,11.0,30,-99.99,,,-99.99,457.700012,,2013-06-17 02:43:00,
2013-06-16 18:53:00,83.0,48.0,30.18,North,5,2.0,12.0,30,-99.99,,,-99.99,446.799988,,2013-06-17 02:53:00,
2013-06-16 19:02:00,83.0,49.0,30.18,North,0,2.0,7.0,30,-99.99,,,-99.99,422.600006,,2013-06-17 03:02:00,
2013-06-16 19:11:00,83.0,49.0,30.18,North,349,2.0,11.0,30,-99.99,,,-99.99,412.100006,,2013-06-17 03:11:00,
2013-06-16 19:22:00,82.0,48.0,30.18,North,358,2.0,7.0,30,-99.99,,,-99.99,400.600006,,2013-06-17 03:22:00,
2013-06-16 19:33:00,82.0,49.0,30.18,North,359,1.0,6.0,31,-99.99,,,-99.99,357.200012,,2013-06-17 03:33:00,
2013-06-16 19:44:00,82.0,49.0,30.18,North,358,1.0,7.0,31,-99.99,,,-99.99,347.799988,,2013-06-17 03:44:00,
2013-06-16 19:53:00,82.0,49.0,30.18,North,8,1.0,7.0,32,-99.99,,,-99.99,336.399994,,2013-06-17 03:53:00,
2013-06-16 20:02:00,82.0,49.0,30.18,NNW,346,2.0,7.0,32,-99.99,,,-99.99,320.200012,,2013-06-17 04:02:00,
2013-06-16 20:12:00,82.0,49.0,30.18,NNW,338,1.0,6.0,32,-99.99,,,-99.99,290.700012,,2013-06-17 04:12:00,
2013-06-16 20:22:00,82.0,49.0,30.16,NNW,340,1.0,8.0,32,-99.99,,,-99.99,280.000000,,2013-06-17 04:22:00,
2013-06-16 20:33:00,82.0,49.0,30.16,NNW,346,0.0,7.0,31,-99.99,,,-99.99,269.899994,,2013-06-17 04:33:00,
2013-06-16 20:42:00,81.0,49.0,30.16,NNW,344,1.0,5.0,32,-99.99,,,-99.99,243.699997,,2013-06-17 04:42:00,
2013-06-16 20:53:00,81.0,50.0,30.16,North,350,0.0,4.0,33,-99.99,,,-99.99,226.699997,,2013-06-17 04:53:00,
2013-06-16 21:02:00,81.0,49.0,30.16,NNW,337,0.0,4.0,33,-99.99,,,-99.99,211.000000,,2013-06-17 05:02:00,
2013-06-16 21:11:00,80.0,50.0,30.16,NNW,335,0.0,4.0,34,-99.99,,,-99.99,194.800003,,2013-06-17 05:11:00,
2013-06-16 21:22:00,80.0,48.0,30.16,NNE,14,2.0,9.0,32,-99.99,,,-99.99,173.300003,,2013-06-17 05:22:00,
2013-06-16 21:33:00,79.0,51.0,30.16,North,357,0.0,2.0,37,-99.99,,,-99.99,151.699997,,2013-06-17 05:33:00,
2013-06-16 21:44:00,79.0,50.0,30.16,NNE,30,0.0,4.0,36,-99.99,,,-99.99,144.600006,,2013-06-17 05:44:00,
2013-06-16 21:53:00,79.0,50.0,30.16,NW,322,1.0,6.0,37,-99.99,,,-99.99,128.899994,,2013-06-17 05:53:00,
2013-06-16 22:02:00,78.0,51.0,30.16,NW,310,0.0,4.0,37,-99.99,,,-99.99,125.199997,,2013-06-17 06:02:00,
2013-06-16 22:12:00,76.0,53.0,30.18,North,0,0.0,0.0,44,-99.99,,,-99.99,102.300003,,2013-06-17 06:12:00,
2013-06-16 22:22:00,76.0,52.0,30.18,North,0,0.0,2.0,43,-99.99,,,-99.99,97.800003,,2013-06-17 06:22:00,
2013-06-16 22:32:00,74.0,52.0,30.18,North,0,0.0,0.0,45,-99.99,,,-99.99,82.500000,,2013-06-17 06:32:00,
2013-06-16 22:43:00,70.0,53.0,30.18,North,0,0.0,0.0,55,-99.99,,,-99.99,70.800003,,2013-06-17 06:43:00,
2013-06-16 22:53:00,70.0,53.0,30.18,North,0,0.0,0.0,56,-99.99,,,-99.99,35.700001,,2013-06-17 06:53:00,
2013-06-16 23:02:00,66.0,53.0,30.18,South,189,0.0,3.0,62,-99.99,,,-99.99,20.200001,,2013-06-17 07:02:00,
2013-06-16 23:11:00,66.0,53.0,30.18,North,0,0.0,0.0,62,-99.99,,,-99.99,16.900000,,2013-06-17 07:11:00,
2013-06-16 23:33:00,65.0,53.0,30.18,North,0,0.0,0.0,64,-99.99,,,-99.99,14.100000,,2013-06-17 07:33:00,
2013-06-16 23:52:00,64.0,53.0,30.18,North,0,0.0,0.0,67,-99.99,,,-99.99,10.600000,,2013-06-17 07:52:00,